Time;durP1;ratioP1;P1;durP2;ratioP2;P2;SDS_P1;SDS_P2;PMS_P1;PMS_P2;Temp;Humidity;BMP_temperature;BMP_pressure;BME280_temperature;BME280_humidity;BME280_pressure;Samples;Min_cycle;Max_cycle;Signal;HPM_P1;HPM_P2
2022/04/02 00:00:56;;;;;;;16.33;13.53;;;0.70;99.90;;;;;;4976018;28;20235;-88
2022/04/02 00:03:22;;;;;;;17.03;13.10;;;0.60;99.90;;;;;;4975140;28;20546;-87
2022/04/02 00:05:49;;;;;;;16.53;13.57;;;0.70;99.90;;;;;;4975708;28;20182;-87
2022/04/02 00:08:15;;;;;;;17.70;13.70;;;0.60;99.90;;;;;;4989154;28;20668;-87
2022/04/02 00:10:41;;;;;;;16.67;13.70;;;0.60;99.90;;;;;;4978516;28;20556;-88
2022/04/02 00:13:07;;;;;;;17.57;14.23;;;0.60;99.90;;;;;;4959666;28;20286;-88
2022/04/02 00:15:33;;;;;;;17.27;13.17;;;0.60;99.90;;;;;;4959825;28;20187;-88
2022/04/02 00:17:59;;;;;;;15.90;13.00;;;0.60;99.90;;;;;;4960186;28;20184;-87
2022/04/02 00:20:25;;;;;;;16.13;13.60;;;0.60;99.90;;;;;;4971614;28;20183;-88
2022/04/02 00:25:37;;;;;;;13.67;11.73;;;0.60;99.90;;;;;;4995259;28;20260;-88
2022/04/02 00:28:03;;;;;;;16.27;13.07;;;0.60;99.90;;;;;;4974986;28;20274;-88
2022/04/02 00:30:29;;;;;;;16.00;12.77;;;0.60;99.90;;;;;;4988974;28;20186;-88
2022/04/02 00:32:55;;;;;;;15.37;12.93;;;0.60;99.90;;;;;;4978358;28;20351;-88
2022/04/02 00:35:21;;;;;;;16.13;13.10;;;0.60;99.90;;;;;;4978645;28;20183;-87
2022/04/02 00:37:47;;;;;;;16.20;13.53;;;0.60;99.90;;;;;;4978576;28;20187;-87
2022/04/02 00:40:13;;;;;;;12.80;11.03;;;0.60;99.90;;;;;;4978534;28;20245;-88
2022/04/02 00:42:39;;;;;;;15.57;12.23;;;0.60;99.90;;;;;;4977957;28;20221;-88
2022/04/02 00:45:07;;;;;;;14.47;11.83;;;0.60;99.90;;;;;;4978232;28;20179;-88
2022/04/02 00:47:33;;;;;;;14.87;11.80;;;0.60;99.90;;;;;;4978258;28;20235;-87
2022/04/02 00:49:59;;;;;;;13.63;11.43;;;0.60;99.90;;;;;;4978293;28;20667;-87
2022/04/02 00:52:26;;;;;;;14.33;11.17;;;0.60;99.90;;;;;;4978492;28;20212;-87
2022/04/02 00:54:53;;;;;;;13.20;11.20;;;0.60;99.90;;;;;;4978682;28;20196;-87
2022/04/02 00:57:19;;;;;;;13.47;11.57;;;0.60;99.90;;;;;;4978467;28;20215;-88
2022/04/02 00:59:46;;;;;;;13.77;10.93;;;0.70;99.90;;;;;;4974817;28;20266;-88
2022/04/02 01:02:13;;;;;;;12.90;11.03;;;0.60;99.90;;;;;;4959214;28;20235;-87
2022/04/02 01:04:40;;;;;;;14.23;11.83;;;0.70;99.90;;;;;;4959364;28;20172;-87
2022/04/02 01:07:09;;;;;;;13.17;10.77;;;0.60;99.90;;;;;;4963529;28;20187;-87
2022/04/02 01:09:38;;;;;;;13.37;10.97;;;0.60;99.90;;;;;;4979054;28;20171;-87
2022/04/02 01:12:08;;;;;;;13.23;10.83;;;0.60;99.90;;;;;;4978974;28;20237;-88
2022/04/02 01:14:37;;;;;;;12.87;10.50;;;0.60;99.90;;;;;;4974726;28;20186;-87
2022/04/02 01:17:14;;;;;;;13.17;11.13;;;0.60;99.90;;;;;;4963863;28;20199;-87
2022/04/02 01:19:42;;;;;;;11.37;9.93;;;0.60;99.90;;;;;;4978754;28;20187;-87
2022/04/02 01:22:16;;;;;;;13.90;11.03;;;0.60;99.90;;;;;;4979161;28;20214;-87
2022/04/02 01:24:51;;;;;;;12.03;10.57;;;0.60;99.90;;;;;;4963087;28;20183;-87
2022/04/02 01:27:19;;;;;;;13.93;10.77;;;0.60;99.90;;;;;;4962814;28;20172;-87
2022/04/02 01:29:53;;;;;;;12.60;10.47;;;0.60;99.90;;;;;;4964800;28;20183;-87
2022/04/02 01:32:21;;;;;;;11.73;10.53;;;0.60;99.90;;;;;;4962715;28;20226;-87
2022/04/02 01:34:53;;;;;;;12.07;10.27;;;0.60;99.90;;;;;;4963552;28;20187;-87
2022/04/02 01:37:20;;;;;;;12.63;10.33;;;0.60;99.90;;;;;;4962651;28;20227;-87
2022/04/02 01:39:51;;;;;;;11.03;9.70;;;0.60;99.90;;;;;;4963598;28;20188;-87
2022/04/02 01:42:24;;;;;;;13.03;10.27;;;0.60;99.90;;;;;;4962813;28;20216;-87
2022/04/02 01:44:59;;;;;;;12.83;10.17;;;0.60;99.90;;;;;;4963724;28;20179;-87
2022/04/02 01:47:37;;;;;;;11.83;9.97;;;0.60;99.90;;;;;;4986670;28;20171;-87
2022/04/02 01:50:05;;;;;;;12.97;11.07;;;0.60;99.90;;;;;;4981726;28;20180;-87
2022/04/02 01:52:36;;;;;;;12.53;10.43;;;0.60;99.90;;;;;;4982926;28;20877;-87
2022/04/02 01:55:06;;;;;;;13.57;11.07;;;0.60;99.90;;;;;;4982298;28;20187;-87
2022/04/02 01:57:34;;;;;;;13.53;11.17;;;0.60;99.90;;;;;;4982065;28;20180;-87
2022/04/02 02:00:00;;;;;;;15.03;11.73;;;0.70;99.90;;;;;;4981949;28;20180;-87
2022/04/02 02:02:26;;;;;;;14.07;11.77;;;0.70;99.90;;;;;;4979806;28;20218;-87
2022/04/02 02:04:52;;;;;;;14.73;12.00;;;0.60;99.90;;;;;;4961415;28;20176;-87
2022/04/02 02:07:18;;;;;;;14.10;11.93;;;0.60;99.90;;;;;;4961423;28;20200;-87
2022/04/02 02:09:48;;;;;;;15.63;12.10;;;0.70;99.90;;;;;;4961470;28;20259;-87
2022/04/02 02:12:22;;;;;;;14.13;12.30;;;0.70;99.90;;;;;;4961879;28;20204;-87
2022/04/02 02:14:59;;;;;;;16.33;12.63;;;0.70;99.90;;;;;;4962217;28;20326;-87
2022/04/02 02:17:25;;;;;;;19.07;15.03;;;0.70;99.90;;;;;;4967251;28;20283;-87
2022/04/02 02:19:58;;;;;;;17.63;14.10;;;0.70;99.90;;;;;;4961445;28;20338;-87
2022/04/02 02:22:24;;;;;;;19.87;15.17;;;0.80;99.90;;;;;;4977027;28;20300;-87
2022/04/02 02:24:50;;;;;;;18.13;14.50;;;0.80;99.90;;;;;;4960583;28;20180;-87
2022/04/02 02:27:16;;;;;;;20.10;15.50;;;0.80;99.90;;;;;;4959410;28;20176;-87
2022/04/02 02:29:42;;;;;;;20.43;15.30;;;0.80;99.90;;;;;;4960314;28;20184;-87
2022/04/02 02:32:26;;;;;;;19.60;15.33;;;0.80;99.90;;;;;;4975613;28;20209;-87
2022/04/02 02:37:42;;;;;;;20.43;15.43;;;0.90;99.90;;;;;;4985077;28;20209;-87
2022/04/02 02:40:12;;;;;;;18.83;15.30;;;0.90;99.90;;;;;;4979457;28;20190;-87
2022/04/02 02:42:38;;;;;;;21.57;15.57;;;0.80;99.90;;;;;;4979624;28;20262;-87
2022/04/02 02:45:22;;;;;;;21.97;16.17;;;0.90;99.90;;;;;;4976051;28;20211;-87
2022/04/02 02:47:49;;;;;;;19.33;15.47;;;0.90;99.90;;;;;;4976559;28;20180;-87
2022/04/02 02:50:21;;;;;;;18.87;15.20;;;0.90;99.90;;;;;;4976805;28;20186;-87
2022/04/02 02:52:54;;;;;;;19.03;15.40;;;0.90;99.90;;;;;;4977246;28;20269;-87
2022/04/02 02:55:21;;;;;;;19.27;15.00;;;1.00;99.90;;;;;;4976185;28;20226;-87
2022/04/02 02:57:48;;;;;;;19.63;16.03;;;0.90;99.90;;;;;;4976136;28;20182;-87
2022/04/02 03:00:16;;;;;;;20.63;15.17;;;0.90;99.90;;;;;;4975624;28;20180;-87
2022/04/02 03:02:44;;;;;;;22.37;16.13;;;0.90;99.90;;;;;;4975589;28;20320;-87
2022/04/02 03:05:16;;;;;;;20.67;15.10;;;0.90;99.90;;;;;;4976120;28;20260;-87
2022/04/02 03:07:50;;;;;;;18.83;14.67;;;0.90;99.90;;;;;;4977166;28;20274;-87
2022/04/02 03:10:29;;;;;;;19.73;15.07;;;0.90;99.90;;;;;;4961013;28;20180;-87
2022/04/02 03:12:58;;;;;;;20.70;14.83;;;0.90;99.90;;;;;;4959912;28;20204;-87
2022/04/02 03:15:28;;;;;;;17.00;14.13;;;1.00;99.90;;;;;;4960288;28;20306;-87
2022/04/02 03:18:02;;;;;;;22.83;15.10;;;0.90;99.90;;;;;;4959994;28;20214;-87
2022/04/02 03:20:28;;;;;;;17.40;13.77;;;0.90;99.90;;;;;;4959582;28;20234;-88
2022/04/02 03:22:55;;;;;;;14.80;12.50;;;1.00;99.90;;;;;;4959517;28;20208;-87
2022/04/02 03:25:22;;;;;;;18.20;14.33;;;0.90;99.90;;;;;;4959501;28;20200;-87
2022/04/02 03:27:49;;;;;;;17.50;13.70;;;0.90;99.90;;;;;;4973727;28;20255;-87
2022/04/02 03:30:17;;;;;;;18.90;14.37;;;0.90;99.90;;;;;;4978632;28;20300;-87
2022/04/02 03:32:47;;;;;;;20.10;14.67;;;0.90;99.90;;;;;;4978938;28;20207;-87
2022/04/02 03:35:14;;;;;;;18.70;13.70;;;0.90;99.90;;;;;;4975278;28;20219;-87
2022/04/02 03:37:43;;;;;;;15.20;13.43;;;1.00;99.90;;;;;;4967694;28;20261;-88
2022/04/02 03:40:16;;;;;;;16.63;13.07;;;1.00;99.90;;;;;;4976352;28;20196;-87
2022/04/02 03:42:44;;;;;;;16.33;12.83;;;1.00;99.90;;;;;;4959300;28;20212;-87
2022/04/02 03:45:13;;;;;;;17.33;12.43;;;1.00;99.90;;;;;;4959132;28;20183;-87
2022/04/02 03:47:45;;;;;;;16.43;12.77;;;1.00;99.90;;;;;;4944199;28;20203;-87
2022/04/02 03:50:12;;;;;;;15.13;12.87;;;1.00;99.90;;;;;;4959012;28;20219;-87
2022/04/02 03:52:45;;;;;;;15.83;12.60;;;1.00;99.90;;;;;;4959734;28;20295;-87
2022/04/02 03:55:15;;;;;;;16.20;13.17;;;0.90;99.90;;;;;;4970565;28;20214;-87
2022/04/02 03:57:47;;;;;;;15.33;12.67;;;0.90;99.90;;;;;;4978656;28;20190;-87
2022/04/02 04:00:14;;;;;;;15.40;11.53;;;0.90;99.90;;;;;;4978146;28;20187;-87
2022/04/02 04:02:45;;;;;;;15.87;11.93;;;0.90;99.90;;;;;;4978572;28;20329;-87
2022/04/02 04:05:19;;;;;;;14.50;11.73;;;0.90;99.90;;;;;;4978811;28;20175;-88
2022/04/02 04:07:46;;;;;;;15.23;11.60;;;0.90;99.90;;;;;;4978636;28;20187;-87
2022/04/02 04:10:12;;;;;;;13.43;10.80;;;0.80;99.90;;;;;;4974739;28;20176;-87
2022/04/02 04:12:38;;;;;;;17.13;10.83;;;0.80;99.90;;;;;;4974895;28;20231;-87
2022/04/02 04:15:06;;;;;;;13.30;11.17;;;0.90;99.90;;;;;;4974990;28;20283;-87
2022/04/02 04:17:35;;;;;;;15.60;11.60;;;0.80;99.90;;;;;;4974660;28;20191;-87
2022/04/02 04:20:03;;;;;;;14.13;10.83;;;0.80;99.90;;;;;;4974910;28;20203;-87
2022/04/02 04:22:30;;;;;;;16.53;11.07;;;0.80;99.90;;;;;;4973921;28;20205;-87
2022/04/02 04:24:57;;;;;;;17.60;11.60;;;0.80;99.90;;;;;;4974359;28;20200;-87
2022/04/02 04:27:23;;;;;;;14.50;11.37;;;0.70;99.90;;;;;;4974524;28;20214;-87
2022/04/02 04:29:49;;;;;;;16.00;11.60;;;0.70;99.90;;;;;;4974166;28;20573;-87
2022/04/02 04:32:16;;;;;;;16.00;11.80;;;0.70;99.90;;;;;;4974000;28;20219;-87
2022/04/02 04:34:43;;;;;;;15.37;10.97;;;0.70;99.90;;;;;;4974240;28;20268;-87
2022/04/02 04:37:09;;;;;;;15.23;11.20;;;0.60;99.90;;;;;;4974046;28;20276;-87
2022/04/02 04:39:37;;;;;;;14.23;10.83;;;0.50;99.90;;;;;;4959670;28;20195;-87
2022/04/02 04:42:04;;;;;;;14.03;11.47;;;0.50;99.90;;;;;;4960637;28;20219;-87
2022/04/02 04:44:33;;;;;;;13.90;11.37;;;0.50;99.90;;;;;;4961222;28;20184;-87
2022/04/02 04:47:00;;;;;;;17.47;11.57;;;0.40;99.90;;;;;;4960727;28;20231;-87
2022/04/02 04:49:30;;;;;;;14.57;11.20;;;0.50;99.90;;;;;;4975931;28;20177;-87
2022/04/02 04:52:24;;;;;;;15.83;10.30;;;0.50;99.90;;;;;;4972176;28;20201;-88
2022/04/02 04:54:51;;;;;;;14.20;10.97;;;0.50;99.90;;;;;;4976388;28;20181;-87
2022/04/02 04:57:19;;;;;;;14.97;10.07;;;0.50;99.90;;;;;;4976326;28;20181;-87
2022/04/02 05:00:05;;;;;;;15.07;9.53;;;0.50;99.90;;;;;;4976441;28;20273;-87
2022/04/02 05:02:35;;;;;;;14.93;10.07;;;0.60;99.90;;;;;;4976018;28;20215;-87
2022/04/02 05:05:15;;;;;;;14.33;10.50;;;0.50;99.90;;;;;;4965972;28;20182;-87
2022/04/02 05:07:45;;;;;;;13.97;9.60;;;0.50;99.90;;;;;;4976858;28;20165;-86
2022/04/02 05:10:13;;;;;;;14.03;9.40;;;0.50;99.90;;;;;;4976325;28;20187;-87
2022/04/02 05:12:39;;;;;;;10.57;8.70;;;0.50;99.90;;;;;;4979311;28;20195;-87
2022/04/02 05:15:09;;;;;;;14.57;8.60;;;0.50;99.90;;;;;;4979351;28;20179;-87
2022/04/02 05:17:36;;;;;;;12.27;8.73;;;0.50;99.90;;;;;;4979086;28;20199;-87
2022/04/02 05:20:06;;;;;;;9.77;7.73;;;0.50;99.90;;;;;;4979496;28;20184;-87
2022/04/02 05:22:38;;;;;;;12.17;8.47;;;0.50;99.90;;;;;;4979317;28;20238;-87
2022/04/02 05:25:06;;;;;;;10.47;8.23;;;0.50;99.90;;;;;;4979324;28;20174;-86
2022/04/02 05:27:33;;;;;;;15.30;7.93;;;0.60;99.90;;;;;;4975450;28;20243;-87
2022/04/02 05:30:01;;;;;;;12.53;8.27;;;0.60;99.90;;;;;;4977404;28;20183;-86
2022/04/02 05:32:31;;;;;;;11.47;8.50;;;0.60;99.90;;;;;;4979349;28;20201;-87
2022/04/02 05:34:58;;;;;;;9.07;7.60;;;0.60;99.90;;;;;;4979352;28;20266;-87
2022/04/02 05:37:25;;;;;;;11.37;8.93;;;0.60;99.90;;;;;;5012240;28;20178;-87
2022/04/02 05:39:52;;;;;;;12.10;8.43;;;0.60;99.90;;;;;;4978981;28;20182;-87
2022/04/02 05:42:19;;;;;;;10.97;8.30;;;0.60;99.90;;;;;;4975563;28;20247;-87
2022/04/02 05:44:45;;;;;;;14.87;9.43;;;0.50;99.90;;;;;;4974180;28;20181;-87
2022/04/02 05:47:11;;;;;;;11.43;8.37;;;0.50;99.90;;;;;;4969888;28;20185;-87
2022/04/02 05:49:37;;;;;;;11.57;8.50;;;0.50;99.90;;;;;;4976679;28;20204;-87
2022/04/02 05:52:04;;;;;;;9.87;8.67;;;0.50;99.90;;;;;;4976409;28;20210;-87
2022/04/02 05:54:31;;;;;;;13.07;8.67;;;0.60;99.90;;;;;;4986628;28;20264;-87
2022/04/02 05:56:57;;;;;;;16.40;10.23;;;0.50;99.90;;;;;;4996047;28;20638;-87
2022/04/02 05:59:24;;;;;;;26.33;18.07;;;0.50;99.90;;;;;;4960766;28;20279;-87
2022/04/02 06:01:50;;;;;;;17.60;12.47;;;0.50;99.90;;;;;;4962078;28;20215;-87
2022/04/02 06:04:17;;;;;;;11.67;8.70;;;0.60;99.90;;;;;;4961638;28;20245;-87
2022/04/02 06:06:42;;;;;;;17.47;13.33;;;0.60;99.90;;;;;;4977221;28;20236;-87
2022/04/02 06:09:08;;;;;;;23.37;16.50;;;0.70;99.90;;;;;;4977465;28;20177;-87
2022/04/02 06:11:34;;;;;;;10.53;8.93;;;0.70;99.90;;;;;;4962462;28;20678;-88
2022/04/02 06:14:00;;;;;;;11.27;10.07;;;0.70;99.90;;;;;;4982485;28;20177;-87
2022/04/02 06:16:26;;;;;;;11.37;9.30;;;0.70;99.90;;;;;;4981313;28;20212;-87
2022/04/02 06:18:53;;;;;;;12.90;10.53;;;0.70;99.90;;;;;;4998728;28;20179;-87
2022/04/02 06:21:20;;;;;;;10.83;7.47;;;0.80;99.90;;;;;;4979614;28;20295;-87
2022/04/02 06:23:46;;;;;;;10.47;9.20;;;0.70;99.90;;;;;;4976128;28;20217;-87
2022/04/02 06:26:12;;;;;;;14.30;10.00;;;0.70;99.90;;;;;;4961528;28;20184;-87
2022/04/02 06:28:40;;;;;;;9.80;8.17;;;0.70;99.90;;;;;;4979946;28;20186;-87
2022/04/02 06:31:06;;;;;;;9.93;8.53;;;0.60;99.90;;;;;;4960503;28;20200;-87
2022/04/02 06:33:38;;;;;;;9.13;7.47;;;0.60;99.90;;;;;;4961616;28;20198;-87
2022/04/02 06:36:07;;;;;;;12.07;7.50;;;0.70;99.90;;;;;;4961658;28;20272;-88
2022/04/02 06:38:34;;;;;;;9.37;8.10;;;0.70;99.90;;;;;;4962774;28;20265;-87
2022/04/02 06:41:00;;;;;;;9.70;8.67;;;0.70;99.90;;;;;;4962793;28;20204;-90
2022/04/02 06:43:26;;;;;;;9.00;7.97;;;0.70;99.90;;;;;;4993806;28;20215;-87
2022/04/02 06:45:57;;;;;;;8.03;7.23;;;0.70;99.90;;;;;;4980350;28;20276;-87
2022/04/02 06:48:23;;;;;;;8.47;7.63;;;0.80;99.90;;;;;;4976288;28;20181;-87
2022/04/02 06:50:50;;;;;;;9.90;8.30;;;0.80;99.90;;;;;;4971007;28;20185;-87
2022/04/02 06:53:16;;;;;;;8.77;7.60;;;0.80;99.90;;;;;;4985596;28;20190;-87
2022/04/02 06:55:42;;;;;;;9.60;8.60;;;0.70;99.90;;;;;;4968192;28;20199;-87
2022/04/02 06:58:17;;;;;;;10.50;9.13;;;0.70;99.90;;;;;;4969248;28;20190;-87
2022/04/02 07:01:01;;;;;;;9.83;8.83;;;0.70;99.90;;;;;;4977750;28;20438;-86
2022/04/02 07:03:29;;;;;;;11.23;9.00;;;0.70;99.90;;;;;;4985588;28;20198;-87
2022/04/02 07:05:56;;;;;;;9.30;8.20;;;0.80;99.90;;;;;;4968303;28;20231;-87
2022/04/02 07:08:22;;;;;;;10.93;7.70;;;0.70;99.90;;;;;;4980732;28;20185;-87
2022/04/02 07:10:48;;;;;;;9.20;7.90;;;0.80;99.90;;;;;;4964980;28;20171;-87
2022/04/02 07:13:15;;;;;;;9.33;8.00;;;0.70;99.90;;;;;;4968875;28;20278;-86
2022/04/02 07:15:41;;;;;;;9.37;8.00;;;0.70;99.90;;;;;;4970142;28;20176;-87
2022/04/02 07:18:09;;;;;;;8.67;6.60;;;0.70;99.90;;;;;;4982937;28;20190;-87
2022/04/02 07:20:38;;;;;;;9.77;8.77;;;0.70;99.90;;;;;;4978397;28;20633;-87
2022/04/02 07:23:07;;;;;;;7.27;6.47;;;0.80;99.90;;;;;;4978866;28;20251;-86
2022/04/02 07:25:39;;;;;;;9.53;8.37;;;0.80;99.90;;;;;;4975363;28;20182;-87
2022/04/02 07:28:07;;;;;;;7.80;6.33;;;0.80;99.90;;;;;;4974156;28;20185;-87
2022/04/02 07:30:37;;;;;;;9.10;7.30;;;0.80;99.90;;;;;;4974583;28;20188;-86
2022/04/02 07:33:04;;;;;;;8.87;7.57;;;0.90;99.90;;;;;;4974858;28;20212;-87
2022/04/02 07:35:45;;;;;;;7.47;6.67;;;1.00;99.90;;;;;;4975421;28;20248;-87
2022/04/02 07:38:22;;;;;;;9.33;7.00;;;1.00;99.90;;;;;;4965377;28;20184;-86
2022/04/02 07:41:14;;;;;;;7.23;6.50;;;1.00;99.90;;;;;;4959627;28;20186;-87
2022/04/02 07:43:49;;;;;;;6.57;5.97;;;1.10;99.90;;;;;;4959213;28;20197;-87
2022/04/02 07:46:20;;;;;;;7.97;6.50;;;1.00;99.90;;;;;;4959317;28;20184;-87
2022/04/02 07:48:48;;;;;;;8.17;6.63;;;1.00;99.90;;;;;;4959499;28;20186;-87
2022/04/02 07:51:16;;;;;;;7.20;6.50;;;1.10;99.90;;;;;;4959276;28;20602;-88
2022/04/02 07:53:47;;;;;;;7.40;6.63;;;1.10;99.90;;;;;;4959633;28;20217;-90
2022/04/02 07:56:19;;;;;;;6.87;5.60;;;1.20;99.90;;;;;;4962895;28;20198;-90
2022/04/02 07:58:52;;;;;;;7.17;6.47;;;1.20;99.90;;;;;;4981301;28;20185;-88
2022/04/02 08:01:19;;;;;;;8.33;7.23;;;1.30;99.90;;;;;;4995982;28;20214;-87
2022/04/02 08:03:49;;;;;;;7.57;6.83;;;1.30;99.90;;;;;;4973226;28;20208;-87
2022/04/02 08:06:19;;;;;;;10.03;5.97;;;1.40;99.90;;;;;;4981512;28;20179;-87
2022/04/02 08:08:45;;;;;;;9.17;7.63;;;1.40;99.90;;;;;;4986175;28;20186;-87
2022/04/02 08:11:15;;;;;;;6.77;5.73;;;1.40;99.90;;;;;;4980373;28;20185;-87
2022/04/02 08:13:45;;;;;;;7.93;5.87;;;1.40;99.90;;;;;;4979193;28;20277;-86
2022/04/02 08:16:11;;;;;;;7.00;5.70;;;1.30;99.90;;;;;;4976913;28;20278;-87
2022/04/02 08:18:41;;;;;;;6.47;5.40;;;1.40;99.90;;;;;;4982563;28;20318;-87
2022/04/02 08:21:09;;;;;;;8.57;6.67;;;1.40;99.90;;;;;;4975045;28;20217;-86
2022/04/02 08:23:36;;;;;;;5.60;5.10;;;1.40;99.90;;;;;;4958571;28;20201;-86
2022/04/02 08:26:11;;;;;;;9.37;8.43;;;1.40;99.90;;;;;;4974662;28;20648;-86
2022/04/02 08:29:04;;;;;;;7.20;5.80;;;1.30;99.90;;;;;;4968042;28;20181;-86
2022/04/02 08:32:00;;;;;;;7.57;6.20;;;1.20;99.90;;;;;;4983009;28;20178;-87
2022/04/02 08:34:26;;;;;;;8.50;6.87;;;1.30;99.90;;;;;;4906344;28;20194;-87
2022/04/02 08:37:32;;;;;;;8.77;6.30;;;1.30;99.90;;;;;;4989973;28;20197;-89
2022/04/02 08:40:09;;;;;;;8.03;6.17;;;1.30;99.90;;;;;;4994781;28;20184;-88
2022/04/02 08:43:17;;;;;;;7.50;6.40;;;1.20;99.90;;;;;;5000350;28;20205;-90
2022/04/02 08:46:03;;;;;;;5.80;5.20;;;1.30;99.90;;;;;;4994350;28;20178;-88
2022/04/02 08:48:35;;;;;;;7.93;5.50;;;1.10;99.90;;;;;;4980768;28;20230;-87
2022/04/02 08:51:40;;;;;;;6.20;5.20;;;1.10;99.90;;;;;;4984036;28;20184;-87
2022/04/02 08:54:26;;;;;;;8.30;5.80;;;1.00;99.90;;;;;;4967599;28;20271;-87
2022/04/02 08:56:59;;;;;;;6.83;5.73;;;0.90;99.90;;;;;;4966707;28;20192;-87
2022/04/02 08:59:52;;;;;;;6.37;5.03;;;1.00;99.90;;;;;;4975008;28;20634;-87
2022/04/02 09:02:47;;;;;;;7.33;5.13;;;1.10;99.90;;;;;;4969823;28;20216;-87
2022/04/02 09:05:53;;;;;;;8.27;5.63;;;1.20;99.90;;;;;;4986935;28;20188;-87
2022/04/02 09:08:53;;;;;;;6.67;5.37;;;1.20;99.90;;;;;;4968329;28;20184;-88
2022/04/02 09:11:26;;;;;;;6.47;5.60;;;1.20;99.90;;;;;;4975000;28;20218;-88
2022/04/02 09:14:20;;;;;;;6.47;5.23;;;1.40;99.90;;;;;;4985659;28;20287;-87
2022/04/02 09:17:03;;;;;;;6.23;5.63;;;1.30;99.90;;;;;;4947457;28;20201;-87
2022/04/02 09:20:12;;;;;;;5.97;5.23;;;1.30;99.90;;;;;;4975205;28;20192;-88
2022/04/02 09:23:06;;;;;;;6.87;5.33;;;1.10;99.90;;;;;;4950746;28;20759;-88
2022/04/02 09:25:39;;;;;;;6.20;5.33;;;1.10;99.90;;;;;;4977081;28;20193;-88
2022/04/02 09:28:16;;;;;;;5.67;5.07;;;1.10;99.90;;;;;;4975139;28;20211;-88
2022/04/02 09:31:32;;;;;;;6.17;5.50;;;1.20;99.90;;;;;;4965638;28;20200;-88
2022/04/02 09:34:21;;;;;;;6.17;5.33;;;1.20;99.90;;;;;;4967609;28;20193;-88
2022/04/02 09:36:53;;;;;;;7.53;6.17;;;1.10;99.90;;;;;;4961999;28;20173;-91
2022/04/02 09:39:36;;;;;;;6.53;5.70;;;1.20;99.90;;;;;;4962748;28;20186;-90
2022/04/02 09:42:17;;;;;;;7.63;6.60;;;1.10;99.90;;;;;;4962666;28;20224;-88
2022/04/02 09:45:01;;;;;;;9.17;6.80;;;1.00;99.90;;;;;;4969767;28;20175;-88
2022/04/02 09:47:27;;;;;;;7.50;6.13;;;1.00;99.90;;;;;;4972320;28;20184;-88
2022/04/02 09:50:11;;;;;;;7.70;5.30;;;1.00;99.90;;;;;;4970378;28;20180;-88
2022/04/02 09:52:43;;;;;;;6.23;5.63;;;1.00;99.90;;;;;;4971918;28;20281;-87
2022/04/02 09:55:14;;;;;;;7.70;6.90;;;1.00;99.90;;;;;;4970687;28;20194;-88
2022/04/02 09:58:18;;;;;;;8.27;6.50;;;1.00;99.90;;;;;;4971529;28;20177;-87
2022/04/02 10:01:04;;;;;;;8.23;7.03;;;1.00;99.90;;;;;;4986342;28;20252;-89
2022/04/02 10:03:48;;;;;;;7.60;6.53;;;1.00;99.90;;;;;;4978017;28;20208;-88
2022/04/02 10:06:14;;;;;;;7.03;6.33;;;1.00;99.90;;;;;;4977102;28;20188;-89
2022/04/02 10:08:58;;;;;;;7.47;6.67;;;1.10;99.90;;;;;;4959469;28;20251;-88
2022/04/02 10:11:29;;;;;;;8.13;6.30;;;1.10;99.90;;;;;;4975814;28;20175;-88
2022/04/02 10:14:01;;;;;;;8.90;7.33;;;1.20;99.90;;;;;;4986941;28;20205;-88
2022/04/02 10:16:28;;;;;;;7.87;7.10;;;1.10;99.90;;;;;;4979196;28;20544;-88
2022/04/02 10:18:57;;;;;;;7.97;6.50;;;1.20;99.90;;;;;;4978762;28;20184;-88
2022/04/02 10:21:23;;;;;;;9.00;7.30;;;1.10;99.90;;;;;;4975600;28;20224;-88
2022/04/02 10:24:16;;;;;;;7.17;6.47;;;1.20;99.90;;;;;;4960677;28;20748;-88
2022/04/02 10:26:46;;;;;;;7.63;6.83;;;1.10;99.90;;;;;;4960655;28;20211;-87
2022/04/02 10:29:13;;;;;;;9.43;8.03;;;1.20;99.90;;;;;;4971281;28;20211;-88
2022/04/02 10:32:07;;;;;;;9.33;7.50;;;1.20;99.90;;;;;;4980162;28;20185;-88
2022/04/02 10:35:01;;;;;;;9.63;7.70;;;1.20;99.90;;;;;;4979443;28;20184;-88
2022/04/02 10:37:37;;;;;;;11.43;7.70;;;1.10;99.90;;;;;;4979994;28;20194;-89
2022/04/02 10:40:05;;;;;;;10.70;8.87;;;1.20;99.90;;;;;;4980036;28;20310;-88
2022/04/02 10:42:37;;;;;;;12.20;8.97;;;1.20;99.90;;;;;;4979791;28;20211;-88
2022/04/02 10:45:07;;;;;;;71.47;42.70;;;1.20;99.90;;;;;;4979724;28;20186;-88
2022/04/02 10:47:41;;;;;;;170.37;94.20;;;1.20;99.90;;;;;;4975538;28;20179;-88
2022/04/02 10:50:08;;;;;;;18.87;14.30;;;1.30;99.90;;;;;;4960056;28;20183;-87
2022/04/02 10:52:35;;;;;;;37.37;26.13;;;1.30;99.90;;;;;;4960394;28;20219;-88
2022/04/02 10:55:02;;;;;;;15.70;12.20;;;1.20;99.90;;;;;;4959950;28;20225;-88
2022/04/02 10:57:29;;;;;;;10.97;9.43;;;1.30;99.90;;;;;;4960118;28;20192;-88
2022/04/02 11:00:09;;;;;;;11.63;10.20;;;1.40;99.90;;;;;;4985178;28;20198;-89
2022/04/02 11:03:05;;;;;;;9.60;7.33;;;1.20;99.90;;;;;;4991112;28;20236;-88
2022/04/02 11:05:35;;;;;;;12.23;8.57;;;1.40;99.90;;;;;;4975209;28;20192;-88
2022/04/02 11:08:12;;;;;;;11.37;8.73;;;1.50;99.90;;;;;;4976308;28;20184;-89
2022/04/02 11:10:38;;;;;;;12.93;9.93;;;1.40;99.90;;;;;;4960272;28;20181;-88
2022/04/02 11:13:06;;;;;;;15.90;10.90;;;1.30;99.90;;;;;;4976683;28;20206;-88
2022/04/02 11:15:41;;;;;;;8.67;7.77;;;1.20;99.90;;;;;;4976133;28;20275;-89
2022/04/02 11:18:18;;;;;;;11.30;8.73;;;1.30;99.90;;;;;;4976347;28;20191;-88
2022/04/02 11:20:44;;;;;;;11.30;9.67;;;1.30;99.90;;;;;;4975463;28;20185;-88
2022/04/02 11:23:32;;;;;;;15.63;11.27;;;1.20;99.90;;;;;;4975974;28;20264;-89
2022/04/02 11:26:03;;;;;;;13.67;10.63;;;1.20;99.90;;;;;;4976108;28;20182;-88
2022/04/02 11:28:44;;;;;;;11.03;9.17;;;1.10;99.90;;;;;;4974329;28;20182;-88
2022/04/02 11:31:13;;;;;;;10.90;9.43;;;1.20;99.90;;;;;;4959504;28;20186;-89
2022/04/02 11:33:52;;;;;;;13.17;9.13;;;1.30;99.90;;;;;;4959347;28;20293;-89
2022/04/02 11:36:29;;;;;;;10.57;9.17;;;1.50;99.90;;;;;;4960325;28;20184;-89
2022/04/02 11:38:57;;;;;;;12.13;10.37;;;1.60;99.90;;;;;;4978918;28;20187;-88
2022/04/02 11:41:34;;;;;;;9.67;7.87;;;1.60;99.90;;;;;;4978107;28;20254;-88
2022/04/02 11:44:08;;;;;;;10.87;9.00;;;1.40;99.90;;;;;;4978743;28;20296;-88
2022/04/02 11:47:06;;;;;;;13.87;11.43;;;1.20;99.90;;;;;;4978151;28;20191;-87
2022/04/02 11:49:39;;;;;;;11.97;9.30;;;1.10;99.90;;;;;;4977531;28;20175;-88
2022/04/02 11:52:10;;;;;;;13.47;9.60;;;1.00;99.90;;;;;;4977987;28;20215;-88
2022/04/02 11:54:59;;;;;;;13.37;10.40;;;1.00;99.90;;;;;;4974477;28;20555;-88
2022/04/02 11:57:25;;;;;;;11.83;8.87;;;1.00;99.90;;;;;;4959105;28;20649;-88
2022/04/02 12:00:01;;;;;;;12.07;8.93;;;1.10;99.90;;;;;;4974656;28;20227;-88
2022/04/02 12:02:40;;;;;;;10.03;8.90;;;1.20;99.90;;;;;;4978120;28;20220;-87
2022/04/02 12:05:10;;;;;;;10.57;8.53;;;1.10;99.90;;;;;;4978355;28;20306;-88
2022/04/02 12:07:44;;;;;;;9.77;8.30;;;1.10;99.90;;;;;;4959213;28;20213;-88
2022/04/02 12:10:18;;;;;;;10.73;9.27;;;1.20;99.90;;;;;;4958730;28;20176;-88
2022/04/02 12:12:49;;;;;;;9.77;8.37;;;1.20;99.90;;;;;;4958798;28;20230;-88
2022/04/02 12:15:16;;;;;;;9.33;7.93;;;1.40;99.90;;;;;;4959128;28;20232;-88
2022/04/02 12:17:50;;;;;;;10.30;8.00;;;1.30;99.90;;;;;;4958869;28;20201;-88
2022/04/02 12:20:32;;;;;;;11.63;9.23;;;1.20;99.90;;;;;;4964683;28;20188;-88
2022/04/02 12:23:24;;;;;;;10.23;8.73;;;1.20;99.90;;;;;;4975001;28;20225;-88
2022/04/02 12:25:59;;;;;;;10.37;9.07;;;1.20;99.90;;;;;;4971902;28;20278;-88
2022/04/02 12:28:25;;;;;;;11.93;10.07;;;1.20;99.90;;;;;;4980033;28;20204;-88
2022/04/02 12:30:53;;;;;;;11.43;9.43;;;1.20;99.90;;;;;;4978915;28;20175;-88
2022/04/02 12:33:22;;;;;;;10.47;8.40;;;1.30;99.90;;;;;;4979314;28;20205;-88
2022/04/02 12:36:09;;;;;;;13.60;9.80;;;1.20;99.90;;;;;;4979317;28;20180;-88
2022/04/02 12:38:40;;;;;;;11.83;10.30;;;1.30;99.90;;;;;;4978984;28;20254;-88
2022/04/02 12:41:28;;;;;;;11.63;10.13;;;1.30;99.90;;;;;;4977405;28;20266;-88
2022/04/02 12:44:06;;;;;;;13.77;10.30;;;1.50;99.90;;;;;;4977253;28;20204;-88
2022/04/02 12:46:32;;;;;;;13.37;10.57;;;1.70;99.90;;;;;;4977901;28;20192;-88
2022/04/02 12:48:59;;;;;;;10.60;9.13;;;1.90;99.90;;;;;;4977680;28;20177;-88
2022/04/02 12:51:25;;;;;;;13.30;10.30;;;1.60;99.90;;;;;;4977545;28;20183;-88
2022/04/02 12:54:01;;;;;;;12.53;10.23;;;1.70;99.90;;;;;;4977076;28;20217;-88
2022/04/02 12:56:37;;;;;;;11.67;10.13;;;1.70;99.90;;;;;;4977514;28;20185;-88
2022/04/02 12:59:16;;;;;;;13.77;10.43;;;1.50;99.90;;;;;;4977371;28;20281;-88
2022/04/02 13:01:43;;;;;;;13.53;10.30;;;1.30;99.90;;;;;;4977367;28;20208;-88
2022/04/02 13:04:13;;;;;;;14.97;9.87;;;1.20;99.90;;;;;;4977542;28;20719;-87
2022/04/02 13:06:42;;;;;;;12.20;9.97;;;1.20;99.90;;;;;;4977648;28;20263;-87
2022/04/02 13:09:21;;;;;;;13.73;10.37;;;1.10;99.90;;;;;;4975102;28;20183;-88
2022/04/02 13:11:53;;;;;;;13.57;11.23;;;1.00;99.90;;;;;;4979546;28;20200;-88
2022/04/02 13:14:20;;;;;;;10.40;8.83;;;0.90;99.90;;;;;;4981822;28;20190;-87
2022/04/02 13:16:48;;;;;;;9.37;8.40;;;0.90;99.90;;;;;;4981365;28;20248;-87